Time;durP1;ratioP1;P1;durP2;ratioP2;P2;SDS_P1;SDS_P2;PMS_P1;PMS_P2;Temp;Humidity;BMP_temperature;BMP_pressure;BME280_temperature;BME280_humidity;BME280_pressure;Samples;Min_cycle;Max_cycle;Signal;HPM_P1;HPM_P2
2021/08/16 00:00:06;;;;;;;16.13;3.10;;;;;;;;;;5006900;28;20340;-71
2021/08/16 00:02:32;;;;;;;19.15;3.83;;;;;;;;;;4997863;28;20073;-72
2021/08/16 00:04:58;;;;;;;17.45;2.80;;;;;;;;;;4994943;28;20026;-71
2021/08/16 00:07:24;;;;;;;18.88;4.53;;;;;;;;;;4996129;28;20033;-71
2021/08/16 00:09:50;;;;;;;16.98;3.58;;;;;;;;;;4997017;28;20060;-72
2021/08/16 00:12:16;;;;;;;15.60;3.00;;;;;;;;;;4996539;28;20057;-72
2021/08/16 00:14:42;;;;;;;15.45;3.03;;;;;;;;;;5003553;28;20030;-71
2021/08/16 00:17:08;;;;;;;17.02;4.93;;;;;;;;;;5001442;28;20430;-71
2021/08/16 00:19:34;;;;;;;13.75;3.13;;;;;;;;;;5016547;28;20072;-72
2021/08/16 00:22:00;;;;;;;16.90;3.30;;;;;;;;;;5006383;28;20057;-72
2021/08/16 00:24:26;;;;;;;17.90;3.30;;;;;;;;;;5004105;28;20442;-72
2021/08/16 00:26:53;;;;;;;15.27;3.72;;;;;;;;;;5003628;28;20056;-72
2021/08/16 00:29:19;;;;;;;12.90;2.78;;;;;;;;;;5003005;28;20110;-71
2021/08/16 00:31:45;;;;;;;13.35;2.92;;;;;;;;;;5003016;28;20034;-71
2021/08/16 00:34:11;;;;;;;16.05;3.33;;;;;;;;;;5007619;28;20139;-71
2021/08/16 00:36:37;;;;;;;13.00;2.28;;;;;;;;;;5009633;28;20040;-72
2021/08/16 00:39:03;;;;;;;19.38;4.13;;;;;;;;;;5001685;28;20113;-71
2021/08/16 00:41:29;;;;;;;15.27;2.85;;;;;;;;;;5005450;28;20038;-72
2021/08/16 00:43:55;;;;;;;15.30;2.97;;;;;;;;;;5000607;28;20104;-72
2021/08/16 00:46:22;;;;;;;14.13;2.75;;;;;;;;;;5020425;28;20068;-72
2021/08/16 00:48:48;;;;;;;19.48;4.10;;;;;;;;;;5006797;28;20036;-72
2021/08/16 00:51:14;;;;;;;15.18;3.47;;;;;;;;;;5012050;28;20034;-72
2021/08/16 00:53:40;;;;;;;17.67;3.00;;;;;;;;;;5004957;28;20384;-72
2021/08/16 00:56:08;;;;;;;15.75;2.50;;;;;;;;;;5000072;28;20034;-71
2021/08/16 00:58:34;;;;;;;18.45;3.20;;;;;;;;;;5007125;28;20068;-72
2021/08/16 01:01:00;;;;;;;18.05;3.25;;;;;;;;;;5013232;28;20072;-71
2021/08/16 01:03:27;;;;;;;15.23;3.00;;;;;;;;;;5000664;28;20092;-72
2021/08/16 01:05:56;;;;;;;14.85;3.08;;;;;;;;;;5028102;28;20025;-72
2021/08/16 01:08:22;;;;;;;17.35;2.72;;;;;;;;;;5016623;28;20130;-71
2021/08/16 01:10:49;;;;;;;17.02;2.40;;;;;;;;;;5024659;28;20113;-71
2021/08/16 01:13:15;;;;;;;17.65;2.72;;;;;;;;;;5025405;28;20416;-72
2021/08/16 01:15:52;;;;;;;15.65;2.85;;;;;;;;;;5007041;28;20071;-72
2021/08/16 01:18:19;;;;;;;11.38;2.67;;;;;;;;;;5010971;28;20731;-72
2021/08/16 01:20:45;;;;;;;16.90;2.83;;;;;;;;;;5008497;28;20030;-72
2021/08/16 01:23:11;;;;;;;17.40;2.53;;;;;;;;;;5012561;28;20099;-72
2021/08/16 01:25:37;;;;;;;15.70;2.97;;;;;;;;;;5018744;28;20026;-73
2021/08/16 01:28:03;;;;;;;10.20;2.25;;;;;;;;;;5021533;28;20018;-70
2021/08/16 01:30:29;;;;;;;10.05;2.33;;;;;;;;;;5018314;28;20026;-71
2021/08/16 01:32:55;;;;;;;13.25;2.35;;;;;;;;;;5008730;28;20427;-72
2021/08/16 01:35:21;;;;;;;16.70;3.05;;;;;;;;;;5011812;28;20352;-70
2021/08/16 01:37:50;;;;;;;11.52;2.83;;;;;;;;;;5006730;28;20113;-72
2021/08/16 01:40:16;;;;;;;19.95;2.42;;;;;;;;;;5010806;28;20387;-72
2021/08/16 01:42:42;;;;;;;16.88;3.22;;;;;;;;;;5010351;28;20025;-72
2021/08/16 01:45:09;;;;;;;14.23;3.10;;;;;;;;;;5006391;28;20022;-72
2021/08/16 01:47:35;;;;;;;15.80;2.42;;;;;;;;;;5003118;28;20419;-72
2021/08/16 01:50:01;;;;;;;14.27;2.13;;;;;;;;;;5018144;28;20080;-72
2021/08/16 01:52:27;;;;;;;12.75;3.05;;;;;;;;;;5010801;28;20033;-72
2021/08/16 01:54:53;;;;;;;13.35;2.75;;;;;;;;;;5009825;28;20037;-72
2021/08/16 01:57:19;;;;;;;12.18;3.10;;;;;;;;;;5003657;28;20026;-72
2021/08/16 01:59:45;;;;;;;10.30;2.20;;;;;;;;;;5012693;28;20505;-72
2021/08/16 02:02:10;;;;;;;17.70;2.20;;;;;;;;;;5010821;28;20116;-72
2021/08/16 02:04:36;;;;;;;13.40;2.40;;;;;;;;;;5013821;28;20025;-72
2021/08/16 02:07:03;;;;;;;11.73;2.30;;;;;;;;;;5020235;28;20029;-72
2021/08/16 02:09:29;;;;;;;13.18;3.15;;;;;;;;;;5012820;28;20498;-72
2021/08/16 02:11:55;;;;;;;13.27;3.42;;;;;;;;;;5004530;28;20383;-72
2021/08/16 02:14:21;;;;;;;15.95;2.30;;;;;;;;;;4998185;28;20089;-72
2021/08/16 02:16:47;;;;;;;11.05;1.88;;;;;;;;;;5010747;28;20037;-72
2021/08/16 02:19:14;;;;;;;14.40;2.35;;;;;;;;;;5011570;28;20069;-73
2021/08/16 02:21:40;;;;;;;12.25;2.10;;;;;;;;;;5009827;28;20034;-72
2021/08/16 02:24:06;;;;;;;16.50;3.17;;;;;;;;;;5007152;28;20033;-72
2021/08/16 02:26:32;;;;;;;12.35;2.47;;;;;;;;;;5019386;28;20041;-72
2021/08/16 02:28:57;;;;;;;15.82;2.13;;;;;;;;;;5013392;28;20022;-71
2021/08/16 02:31:23;;;;;;;11.93;2.63;;;;;;;;;;5006348;28;20036;-72
2021/08/16 02:33:50;;;;;;;10.45;1.98;;;;;;;;;;5010760;28;20040;-73
2021/08/16 02:36:16;;;;;;;11.32;2.90;;;;;;;;;;5011069;28;20034;-72
2021/08/16 02:38:42;;;;;;;10.32;2.35;;;;;;;;;;5010160;28;20041;-72
2021/08/16 02:41:08;;;;;;;16.45;2.85;;;;;;;;;;5009413;28;20033;-73
2021/08/16 02:43:34;;;;;;;17.98;2.80;;;;;;;;;;5011308;28;20041;-72
2021/08/16 02:46:00;;;;;;;9.45;2.15;;;;;;;;;;5013613;28;20041;-72
2021/08/16 02:48:26;;;;;;;14.35;2.90;;;;;;;;;;5004978;28;20014;-71
2021/08/16 02:50:52;;;;;;;9.32;2.28;;;;;;;;;;5013677;28;20032;-72
2021/08/16 02:53:18;;;;;;;14.45;3.08;;;;;;;;;;5007187;28;20042;-71
2021/08/16 02:55:44;;;;;;;8.32;1.85;;;;;;;;;;5007008;28;20034;-71
2021/08/16 02:58:09;;;;;;;12.80;2.20;;;;;;;;;;5005941;28;20026;-72
2021/08/16 03:00:35;;;;;;;12.50;3.40;;;;;;;;;;5015408;28;20034;-73
2021/08/16 03:03:01;;;;;;;17.35;2.10;;;;;;;;;;5011804;28;20025;-72
2021/08/16 03:05:27;;;;;;;10.57;1.98;;;;;;;;;;5000519;28;20022;-72
2021/08/16 03:07:53;;;;;;;9.55;2.20;;;;;;;;;;5020183;28;20029;-72
2021/08/16 03:10:19;;;;;;;9.05;2.05;;;;;;;;;;5010982;28;20026;-72
2021/08/16 03:12:45;;;;;;;11.45;2.95;;;;;;;;;;5009186;28;20030;-72
2021/08/16 03:15:11;;;;;;;11.88;2.58;;;;;;;;;;5006835;28;20029;-72
2021/08/16 03:17:37;;;;;;;12.73;2.10;;;;;;;;;;5003847;28;20035;-72
2021/08/16 03:20:04;;;;;;;20.83;3.00;;;;;;;;;;5010870;28;20037;-72
2021/08/16 03:22:30;;;;;;;13.05;1.95;;;;;;;;;;5022602;28;20497;-71
2021/08/16 03:24:56;;;;;;;13.90;2.55;;;;;;;;;;5002666;28;20493;-72
2021/08/16 03:27:22;;;;;;;13.75;2.75;;;;;;;;;;5012892;28;20030;-72
2021/08/16 03:29:48;;;;;;;11.63;1.90;;;;;;;;;;5010628;28;20234;-72
2021/08/16 03:32:15;;;;;;;14.18;2.13;;;;;;;;;;5008777;28;20032;-72
2021/08/16 03:34:41;;;;;;;11.45;2.70;;;;;;;;;;5011232;28;20029;-73
2021/08/16 03:37:07;;;;;;;11.18;2.60;;;;;;;;;;5021608;28;20041;-72
2021/08/16 03:39:33;;;;;;;13.48;2.30;;;;;;;;;;5010997;28;20402;-72
2021/08/16 03:41:58;;;;;;;10.27;2.00;;;;;;;;;;5000839;28;20045;-71
2021/08/16 03:44:25;;;;;;;10.20;2.15;;;;;;;;;;5006395;28;20034;-72
2021/08/16 03:46:50;;;;;;;9.70;2.35;;;;;;;;;;5011017;28;20030;-72
2021/08/16 03:49:16;;;;;;;14.35;2.83;;;;;;;;;;5005633;28;20040;-72
2021/08/16 03:51:42;;;;;;;13.98;2.05;;;;;;;;;;5012806;28;20141;-72
2021/08/16 03:54:08;;;;;;;16.20;2.80;;;;;;;;;;5018447;28;20483;-71
2021/08/16 03:56:34;;;;;;;10.90;1.67;;;;;;;;;;5025463;28;20074;-71
2021/08/16 03:59:01;;;;;;;9.65;2.10;;;;;;;;;;5006854;28;20088;-72
2021/08/16 04:01:27;;;;;;;10.52;2.88;;;;;;;;;;5005961;28;20037;-71
2021/08/16 04:03:53;;;;;;;8.60;1.88;;;;;;;;;;5007799;28;20026;-72
2021/08/16 04:06:19;;;;;;;12.35;1.95;;;;;;;;;;5004820;28;20084;-72
2021/08/16 04:08:46;;;;;;;14.20;2.20;;;;;;;;;;5013094;28;20010;-72
2021/08/16 04:11:12;;;;;;;8.20;1.60;;;;;;;;;;5009056;28;20033;-72
2021/08/16 04:13:38;;;;;;;13.20;2.50;;;;;;;;;;5013206;28;20034;-71
2021/08/16 04:16:05;;;;;;;9.75;1.80;;;;;;;;;;5011778;28;20026;-71
2021/08/16 04:18:31;;;;;;;14.98;2.47;;;;;;;;;;5008296;28;20545;-71
2021/08/16 04:20:57;;;;;;;8.75;2.10;;;;;;;;;;5004868;28;20389;-72
2021/08/16 04:23:23;;;;;;;12.63;3.00;;;;;;;;;;5012534;28;20372;-71
2021/08/16 04:25:49;;;;;;;13.23;3.17;;;;;;;;;;4998153;28;20037;-71
2021/08/16 04:28:15;;;;;;;5.30;1.77;;;;;;;;;;5008056;28;20026;-71
2021/08/16 04:30:41;;;;;;;5.40;1.75;;;;;;;;;;5007979;28;20467;-72
2021/08/16 04:33:07;;;;;;;9.52;2.13;;;;;;;;;;5012358;28;20034;-71
2021/08/16 04:35:33;;;;;;;19.90;2.33;;;;;;;;;;5005572;28;20478;-72
2021/08/16 04:37:59;;;;;;;9.57;2.70;;;;;;;;;;5015943;28;20029;-72
2021/08/16 04:40:25;;;;;;;10.57;2.47;;;;;;;;;;5011330;28;20028;-70
2021/08/16 04:42:51;;;;;;;13.45;3.90;;;;;;;;;;5001238;28;20027;-72
2021/08/16 04:45:17;;;;;;;13.38;2.47;;;;;;;;;;5007367;28;20025;-72
2021/08/16 04:47:44;;;;;;;5.00;1.73;;;;;;;;;;5011256;28;20072;-72
2021/08/16 04:50:11;;;;;;;8.75;1.17;;;;;;;;;;5010655;28;20112;-71
2021/08/16 04:52:37;;;;;;;6.80;1.52;;;;;;;;;;5006065;28;20022;-71
2021/08/16 04:55:03;;;;;;;8.57;1.98;;;;;;;;;;5029273;28;20104;-73
2021/08/16 04:57:36;;;;;;;7.25;1.98;;;;;;;;;;5026006;28;20037;-71
2021/08/16 05:00:04;;;;;;;7.47;2.35;;;;;;;;;;5015161;28;20081;-72
2021/08/16 05:02:30;;;;;;;5.85;1.85;;;;;;;;;;5026899;28;20089;-71
2021/08/16 05:05:04;;;;;;;5.75;1.55;;;;;;;;;;5031706;28;20033;-71
2021/08/16 05:07:30;;;;;;;6.50;1.65;;;;;;;;;;5024495;28;20171;-71
2021/08/16 05:09:56;;;;;;;6.50;1.88;;;;;;;;;;5027628;28;20518;-72
2021/08/16 05:12:22;;;;;;;4.32;1.88;;;;;;;;;;5012341;28;20115;-72
2021/08/16 05:14:48;;;;;;;7.88;1.58;;;;;;;;;;5028678;28;20069;-72
2021/08/16 05:17:14;;;;;;;6.30;1.35;;;;;;;;;;5003890;28;20495;-72
2021/08/16 05:19:40;;;;;;;7.43;1.98;;;;;;;;;;5025110;28;20068;-72
2021/08/16 05:22:09;;;;;;;5.20;2.08;;;;;;;;;;5005240;28;20194;-72
2021/08/16 05:24:35;;;;;;;5.60;1.58;;;;;;;;;;5018290;28;20026;-71
2021/08/16 05:27:01;;;;;;;4.20;1.60;;;;;;;;;;5018909;28;20021;-72
2021/08/16 05:29:27;;;;;;;6.97;2.47;;;;;;;;;;5014536;28;20047;-71
2021/08/16 05:31:53;;;;;;;7.63;1.63;;;;;;;;;;5011330;28;20558;-72
2021/08/16 05:34:19;;;;;;;8.38;2.05;;;;;;;;;;5009436;28;20037;-72
2021/08/16 05:36:45;;;;;;;9.95;2.08;;;;;;;;;;5012262;28;20060;-72
2021/08/16 05:39:11;;;;;;;5.13;1.50;;;;;;;;;;5023416;28;20125;-71
2021/08/16 05:41:37;;;;;;;7.00;1.95;;;;;;;;;;5016551;28;20026;-71
2021/08/16 05:44:03;;;;;;;11.57;2.42;;;;;;;;;;5011312;28;20025;-72
2021/08/16 05:46:29;;;;;;;6.70;2.05;;;;;;;;;;5031942;28;20021;-72
2021/08/16 05:48:55;;;;;;;5.93;2.35;;;;;;;;;;5010120;28;20309;-72
2021/08/16 05:51:21;;;;;;;8.48;1.77;;;;;;;;;;5011064;28;20096;-72
2021/08/16 05:53:47;;;;;;;6.03;1.90;;;;;;;;;;5013478;28;20043;-72
2021/08/16 05:56:13;;;;;;;8.32;1.90;;;;;;;;;;5013888;28;20434;-72
2021/08/16 05:58:39;;;;;;;10.57;2.00;;;;;;;;;;5005290;28;20057;-72
2021/08/16 06:01:05;;;;;;;6.78;2.50;;;;;;;;;;5013474;28;20033;-72
2021/08/16 06:03:31;;;;;;;7.70;2.33;;;;;;;;;;5011054;28;20076;-72
2021/08/16 06:05:57;;;;;;;10.15;2.20;;;;;;;;;;5013761;28;20026;-72
2021/08/16 06:08:23;;;;;;;15.63;3.85;;;;;;;;;;5008932;28;20037;-72
2021/08/16 06:10:49;;;;;;;8.65;2.42;;;;;;;;;;5018536;28;20060;-72
2021/08/16 06:13:15;;;;;;;12.88;2.72;;;;;;;;;;5010638;28;20045;-72
2021/08/16 06:15:41;;;;;;;7.97;2.70;;;;;;;;;;5006640;28;20026;-72
2021/08/16 06:18:07;;;;;;;10.32;2.03;;;;;;;;;;5011800;28;20143;-72
2021/08/16 06:20:32;;;;;;;8.98;2.42;;;;;;;;;;5012383;28;20147;-72
2021/08/16 06:22:58;;;;;;;13.43;2.47;;;;;;;;;;5019802;28;20089;-70
2021/08/16 06:25:24;;;;;;;5.43;1.88;;;;;;;;;;5021639;28;20030;-70
2021/08/16 06:27:50;;;;;;;9.57;2.60;;;;;;;;;;5024488;28;20026;-72
2021/08/16 06:30:16;;;;;;;7.93;2.05;;;;;;;;;;5005194;28;20026;-72
2021/08/16 06:32:42;;;;;;;11.18;2.63;;;;;;;;;;5005872;28;20109;-72
2021/08/16 06:35:09;;;;;;;10.73;2.53;;;;;;;;;;5010204;28;20025;-72
2021/08/16 06:37:35;;;;;;;10.68;3.90;;;;;;;;;;5012280;28;20022;-72
2021/08/16 06:40:01;;;;;;;7.25;2.22;;;;;;;;;;5020335;28;20079;-72
2021/08/16 06:42:27;;;;;;;6.70;1.75;;;;;;;;;;5006096;28;20066;-72
2021/08/16 06:44:53;;;;;;;6.78;2.33;;;;;;;;;;5008629;28;20064;-72
2021/08/16 06:47:19;;;;;;;8.77;2.53;;;;;;;;;;5010044;28;20022;-73
2021/08/16 06:49:45;;;;;;;8.90;2.60;;;;;;;;;;5008080;28;20084;-72
2021/08/16 06:52:11;;;;;;;10.95;2.45;;;;;;;;;;5003884;28;20037;-72
2021/08/16 06:54:36;;;;;;;10.35;2.60;;;;;;;;;;5008139;28;20065;-72
2021/08/16 06:57:03;;;;;;;9.32;2.72;;;;;;;;;;5004024;28;20040;-72
2021/08/16 06:59:29;;;;;;;8.45;2.25;;;;;;;;;;5014368;28;20026;-72
2021/08/16 07:01:55;;;;;;;9.90;2.40;;;;;;;;;;5025436;28;20030;-72
2021/08/16 07:04:21;;;;;;;9.52;2.90;;;;;;;;;;5009645;28;20474;-72
2021/08/16 07:06:47;;;;;;;13.10;3.70;;;;;;;;;;5010339;28;20037;-72
2021/08/16 07:09:13;;;;;;;8.20;2.42;;;;;;;;;;5011254;28;20022;-73
2021/08/16 07:11:39;;;;;;;7.28;2.53;;;;;;;;;;5021847;28;20387;-73
2021/08/16 07:14:05;;;;;;;10.15;2.53;;;;;;;;;;5011562;28;20025;-72
2021/08/16 07:16:31;;;;;;;8.27;2.15;;;;;;;;;;5008987;28;20038;-71
2021/08/16 07:18:57;;;;;;;15.32;2.22;;;;;;;;;;5002065;28;20030;-71
2021/08/16 07:21:23;;;;;;;6.30;2.13;;;;;;;;;;5004946;28;20092;-72
2021/08/16 07:23:49;;;;;;;9.88;2.25;;;;;;;;;;5011262;28;20054;-71
2021/08/16 07:26:15;;;;;;;5.80;2.35;;;;;;;;;;5006707;28;20026;-72
2021/08/16 07:28:41;;;;;;;10.50;1.90;;;;;;;;;;5016709;28;20030;-73
2021/08/16 07:31:07;;;;;;;13.70;3.50;;;;;;;;;;5002669;28;20359;-71
2021/08/16 07:33:33;;;;;;;6.43;1.92;;;;;;;;;;5009189;28;20065;-71
2021/08/16 07:35:59;;;;;;;5.80;2.25;;;;;;;;;;5012032;28;20068;-71
2021/08/16 07:38:25;;;;;;;8.07;2.40;;;;;;;;;;5018848;28;20026;-72
2021/08/16 07:40:51;;;;;;;10.30;2.25;;;;;;;;;;5003306;28;20510;-73
2021/08/16 07:43:18;;;;;;;9.13;2.40;;;;;;;;;;5016037;28;20044;-71
2021/08/16 07:45:45;;;;;;;5.10;2.10;;;;;;;;;;5008702;28;20479;-71
2021/08/16 07:48:10;;;;;;;8.52;2.13;;;;;;;;;;5009022;28;20030;-70
2021/08/16 07:50:36;;;;;;;10.82;2.67;;;;;;;;;;5017708;28;20037;-70
2021/08/16 07:53:02;;;;;;;8.23;1.95;;;;;;;;;;5008870;28;20033;-69
2021/08/16 07:55:28;;;;;;;6.22;2.28;;;;;;;;;;4999177;28;20034;-70
2021/08/16 07:57:54;;;;;;;8.52;2.40;;;;;;;;;;5008251;28;20022;-70
2021/08/16 08:00:21;;;;;;;6.53;2.40;;;;;;;;;;4991074;28;20031;-69
2021/08/16 08:02:47;;;;;;;11.68;3.45;;;;;;;;;;5002276;28;20021;-70
2021/08/16 08:05:15;;;;;;;6.13;2.78;;;;;;;;;;4991745;28;20034;-69
2021/08/16 08:07:41;;;;;;;11.15;3.22;;;;;;;;;;4998818;28;20026;-70
2021/08/16 08:10:08;;;;;;;9.70;2.22;;;;;;;;;;4999218;28;20373;-70
2021/08/16 08:12:34;;;;;;;9.18;2.83;;;;;;;;;;4989649;28;20492;-70
2021/08/16 08:14:59;;;;;;;9.85;2.90;;;;;;;;;;5013786;28;20014;-70
2021/08/16 08:17:25;;;;;;;10.93;3.13;;;;;;;;;;5000035;28;20371;-70
2021/08/16 08:19:54;;;;;;;7.85;2.63;;;;;;;;;;5000823;28;20034;-70
2021/08/16 08:22:20;;;;;;;9.30;3.67;;;;;;;;;;5013482;28;20031;-71
2021/08/16 08:24:46;;;;;;;14.02;3.38;;;;;;;;;;4993640;28;20037;-70
2021/08/16 08:27:13;;;;;;;10.55;3.20;;;;;;;;;;4994779;28;20109;-70
2021/08/16 08:29:40;;;;;;;9.77;3.30;;;;;;;;;;4989598;28;20022;-70
2021/08/16 08:32:06;;;;;;;9.65;4.13;;;;;;;;;;4991513;28;20101;-70
2021/08/16 08:34:32;;;;;;;18.33;4.88;;;;;;;;;;4991757;28;20108;-70
2021/08/16 08:36:58;;;;;;;12.55;4.10;;;;;;;;;;4991093;28;20632;-70
2021/08/16 08:39:23;;;;;;;13.07;4.20;;;;;;;;;;5002547;28;20487;-70
2021/08/16 08:41:50;;;;;;;12.20;4.60;;;;;;;;;;4995967;28;20117;-70
2021/08/16 08:44:15;;;;;;;17.30;5.65;;;;;;;;;;5000032;28;20033;-70
2021/08/16 08:46:42;;;;;;;13.48;5.38;;;;;;;;;;5000583;28;20035;-70
2021/08/16 08:49:09;;;;;;;11.77;3.63;;;;;;;;;;4992236;28;20022;-70
2021/08/16 08:51:36;;;;;;;13.32;4.65;;;;;;;;;;4998383;28;20081;-70
2021/08/16 08:54:02;;;;;;;17.98;5.18;;;;;;;;;;5003092;28;20040;-72
2021/08/16 08:56:28;;;;;;;19.35;5.60;;;;;;;;;;5008550;28;20038;-70
2021/08/16 08:58:54;;;;;;;12.27;4.53;;;;;;;;;;5011495;28;20093;-71
2021/08/16 09:01:20;;;;;;;14.82;5.00;;;;;;;;;;4998193;28;20043;-70
2021/08/16 09:03:49;;;;;;;11.30;4.45;;;;;;;;;;5017437;28;21767;-71
2021/08/16 09:06:17;;;;;;;13.88;4.70;;;;;;;;;;4990275;28;20707;-71
2021/08/16 09:08:44;;;;;;;11.55;4.18;;;;;;;;;;5001198;28;20077;-70
2021/08/16 09:11:11;;;;;;;12.70;4.82;;;;;;;;;;4992887;28;20105;-70
2021/08/16 09:13:37;;;;;;;14.52;4.95;;;;;;;;;;4990857;28;20034;-70
2021/08/16 09:16:12;;;;;;;10.60;4.65;;;;;;;;;;4992864;28;20034;-70
2021/08/16 09:18:38;;;;;;;9.52;4.55;;;;;;;;;;4995715;28;20026;-70
2021/08/16 09:21:04;;;;;;;17.90;4.28;;;;;;;;;;5009541;28;20073;-72
2021/08/16 09:23:40;;;;;;;16.63;5.15;;;;;;;;;;4993688;28;20027;-70
2021/08/16 09:26:06;;;;;;;11.45;4.32;;;;;;;;;;4994452;28;20028;-70
2021/08/16 09:28:33;;;;;;;10.38;4.13;;;;;;;;;;5001407;28;20422;-70
2021/08/16 09:31:19;;;;;;;11.07;3.92;;;;;;;;;;5010477;28;20386;-70
2021/08/16 09:34:12;;;;;;;11.07;3.38;;;;;;;;;;5008770;28;20034;-69
2021/08/16 09:36:39;;;;;;;8.07;3.35;;;;;;;;;;4997516;28;20055;-70
2021/08/16 09:39:17;;;;;;;8.70;2.95;;;;;;;;;;5009948;28;20345;-70
2021/08/16 09:41:43;;;;;;;10.00;2.65;;;;;;;;;;4997793;28;20525;-69
2021/08/16 09:44:10;;;;;;;8.60;2.50;;;;;;;;;;5000905;28;20023;-69
2021/08/16 09:46:36;;;;;;;7.65;2.65;;;;;;;;;;4998820;28;20384;-70
2021/08/16 09:49:03;;;;;;;7.05;3.38;;;;;;;;;;5005473;28;20041;-70
2021/08/16 09:51:29;;;;;;;11.23;2.85;;;;;;;;;;4998831;28;20106;-70
2021/08/16 09:53:55;;;;;;;11.02;2.78;;;;;;;;;;5013931;28;20046;-70
2021/08/16 09:56:22;;;;;;;13.43;3.03;;;;;;;;;;5007542;28;20046;-71
2021/08/16 09:58:49;;;;;;;8.70;2.55;;;;;;;;;;5004863;28;20026;-70
2021/08/16 10:01:15;;;;;;;5.85;2.22;;;;;;;;;;5006924;28;20134;-70
2021/08/16 10:03:41;;;;;;;6.25;2.35;;;;;;;;;;5016429;28;20337;-70
2021/08/16 10:06:08;;;;;;;5.72;1.92;;;;;;;;;;5007427;28;20029;-70
2021/08/16 10:08:41;;;;;;;10.02;2.53;;;;;;;;;;5004106;28;20422;-70
2021/08/16 10:11:07;;;;;;;9.45;3.17;;;;;;;;;;5006983;28;20106;-70
2021/08/16 10:13:36;;;;;;;5.90;1.90;;;;;;;;;;5000197;28;20510;-70
2021/08/16 10:16:04;;;;;;;6.93;3.13;;;;;;;;;;5004046;28;20064;-71
2021/08/16 10:18:35;;;;;;;4.82;2.28;;;;;;;;;;5001983;28;20030;-70
2021/08/16 10:21:02;;;;;;;5.03;2.15;;;;;;;;;;5000915;28;20393;-70
2021/08/16 10:23:28;;;;;;;3.90;1.92;;;;;;;;;;5009426;28;20171;-70
2021/08/16 10:25:55;;;;;;;5.95;2.92;;;;;;;;;;5007544;28;20525;-70
2021/08/16 10:28:32;;;;;;;8.90;3.78;;;;;;;;;;5002080;28;20041;-71
2021/08/16 10:30:59;;;;;;;8.13;3.13;;;;;;;;;;5005200;28;20435;-71
2021/08/16 10:33:25;;;;;;;5.50;3.17;;;;;;;;;;5011647;28;20029;-71
2021/08/16 10:35:51;;;;;;;6.10;2.72;;;;;;;;;;5000827;28;20288;-70
2021/08/16 10:38:18;;;;;;;10.10;3.47;;;;;;;;;;4999268;28;20449;-71
2021/08/16 10:40:46;;;;;;;8.55;4.00;;;;;;;;;;5005332;28;20360;-70
2021/08/16 10:43:15;;;;;;;6.65;3.30;;;;;;;;;;4994848;28;20026;-70
2021/08/16 10:45:50;;;;;;;5.75;2.53;;;;;;;;;;4992166;28;20034;-71
2021/08/16 10:48:24;;;;;;;7.97;3.15;;;;;;;;;;4996922;28;20117;-70
2021/08/16 10:51:02;;;;;;;6.82;3.33;;;;;;;;;;4995621;28;20030;-70
2021/08/16 10:53:28;;;;;;;8.45;3.78;;;;;;;;;;4992818;28;20093;-70
2021/08/16 10:55:54;;;;;;;10.00;4.45;;;;;;;;;;5006953;28;20030;-70
2021/08/16 10:58:21;;;;;;;9.90;3.92;;;;;;;;;;4995540;28;20069;-70
2021/08/16 11:00:47;;;;;;;10.70;3.72;;;;;;;;;;4993523;28;20030;-69
2021/08/16 11:03:13;;;;;;;8.32;3.47;;;;;;;;;;4996165;28;20390;-70
2021/08/16 11:05:40;;;;;;;8.43;3.45;;;;;;;;;;5010581;28;20022;-69
2021/08/16 11:08:07;;;;;;;9.10;3.55;;;;;;;;;;5013533;28;20112;-70
2021/08/16 11:10:39;;;;;;;9.48;3.60;;;;;;;;;;5011174;28;20057;-70
2021/08/16 11:13:22;;;;;;;13.57;3.70;;;;;;;;;;4995161;28;20503;-70
2021/08/16 11:15:49;;;;;;;11.30;3.55;;;;;;;;;;4995057;28;20030;-70
2021/08/16 11:18:19;;;;;;;9.30;3.50;;;;;;;;;;4994661;28;20029;-70
2021/08/16 11:20:46;;;;;;;7.72;3.22;;;;;;;;;;4995081;28;20057;-70
2021/08/16 11:23:12;;;;;;;10.25;2.55;;;;;;;;;;4992439;28;20015;-70
2021/08/16 11:25:57;;;;;;;9.68;2.55;;;;;;;;;;4992400;28;20491;-70
2021/08/16 11:28:24;;;;;;;18.60;3.33;;;;;;;;;;4997646;28;20026;-70
2021/08/16 11:30:51;;;;;;;7.88;1.90;;;;;;;;;;5006670;28;20030;-70
2021/08/16 11:33:24;;;;;;;7.97;2.10;;;;;;;;;;5004318;28;20093;-70
2021/08/16 11:35:50;;;;;;;5.55;1.55;;;;;;;;;;4997935;28;20383;-70
2021/08/16 11:38:16;;;;;;;8.98;2.55;;;;;;;;;;4996654;28;20040;-69
2021/08/16 11:40:42;;;;;;;12.30;2.92;;;;;;;;;;4997725;28;20031;-69
2021/08/16 11:43:08;;;;;;;10.10;2.08;;;;;;;;;;5000115;28;20363;-69
2021/08/16 11:45:36;;;;;;;13.57;2.67;;;;;;;;;;4994063;28;20053;-70
2021/08/16 11:48:02;;;;;;;11.88;2.22;;;;;;;;;;4992479;28;20045;-70
2021/08/16 11:50:28;;;;;;;12.18;2.75;;;;;;;;;;4992217;28;20057;-70
2021/08/16 11:52:54;;;;;;;10.63;2.28;;;;;;;;;;4994916;28;20439;-70
2021/08/16 11:55:25;;;;;;;10.57;1.95;;;;;;;;;;4992654;28;20022;-71
2021/08/16 11:57:55;;;;;;;11.02;1.98;;;;;;;;;;4993055;28;20033;-71
2021/08/16 12:00:28;;;;;;;11.80;2.53;;;;;;;;;;4992530;28;20030;-70
2021/08/16 12:02:55;;;;;;;11.77;1.88;;;;;;;;;;4995203;28;20026;-71
2021/08/16 12:05:21;;;;;;;11.68;2.40;;;;;;;;;;4996806;28;20030;-71
2021/08/16 12:07:47;;;;;;;17.35;3.85;;;;;;;;;;4995028;28;20031;-71
2021/08/16 12:10:17;;;;;;;6.15;1.83;;;;;;;;;;4996681;28;20506;-71
2021/08/16 12:12:43;;;;;;;7.95;1.48;;;;;;;;;;4990350;28;20791;-70
2021/08/16 12:15:14;;;;;;;9.82;2.15;;;;;;;;;;4992306;28;20545;-71
2021/08/16 12:17:40;;;;;;;7.85;1.42;;;;;;;;;;4990940;28;20519;-71
2021/08/16 12:20:14;;;;;;;10.20;1.40;;;;;;;;;;4990382;28;20027;-71
2021/08/16 12:22:54;;;;;;;11.00;2.65;;;;;;;;;;4988095;28;20104;-72
2021/08/16 12:25:20;;;;;;;10.57;1.85;;;;;;;;;;4992302;28;20381;-70
2021/08/16 12:28:13;;;;;;;6.75;1.70;;;;;;;;;;4999783;28;20026;-71
2021/08/16 12:30:39;;;;;;;7.55;1.90;;;;;;;;;;4999072;28;20054;-71
2021/08/16 12:33:09;;;;;;;8.90;2.22;;;;;;;;;;5000411;28;20030;-70
2021/08/16 12:35:35;;;;;;;13.30;2.38;;;;;;;;;;4999523;28;20030;-71
2021/08/16 12:38:01;;;;;;;8.48;1.95;;;;;;;;;;5004126;28;20049;-71
2021/08/16 12:40:27;;;;;;;11.20;2.20;;;;;;;;;;4997974;28;20038;-70
2021/08/16 12:42:55;;;;;;;8.70;1.90;;;;;;;;;;5002968;28;20045;-71
2021/08/16 12:45:22;;;;;;;8.05;2.20;;;;;;;;;;4995076;28;20026;-70
2021/08/16 12:47:58;;;;;;;8.65;2.13;;;;;;;;;;5004548;28;20026;-70
2021/08/16 12:50:24;;;;;;;12.15;2.22;;;;;;;;;;4999087;28;20029;-70
2021/08/16 12:52:50;;;;;;;9.40;2.30;;;;;;;;;;5002358;28;20029;-70
2021/08/16 12:55:16;;;;;;;9.73;2.40;;;;;;;;;;4994360;28;20467;-70
2021/08/16 12:57:42;;;;;;;7.85;2.65;;;;;;;;;;5001163;28;20049;-70
2021/08/16 13:00:08;;;;;;;9.13;2.30;;;;;;;;;;5010400;28;20031;-70
2021/08/16 13:02:34;;;;;;;12.40;2.45;;;;;;;;;;5007397;28;20549;-70
2021/08/16 13:05:00;;;;;;;5.25;1.65;;;;;;;;;;5005640;28;20054;-70
2021/08/16 13:07:26;;;;;;;8.00;2.45;;;;;;;;;;5007137;28;20033;-71
2021/08/16 13:09:52;;;;;;;15.15;2.22;;;;;;;;;;4999620;28;20060;-70
2021/08/16 13:12:18;;;;;;;7.97;2.00;;;;;;;;;;4997776;28;20034;-71
2021/08/16 13:14:45;;;;;;;7.38;1.88;;;;;;;;;;5001108;28;20031;-70
2021/08/16 13:17:11;;;;;;;7.35;1.70;;;;;;;;;;5000112;28;20092;-70
2021/08/16 13:19:37;;;;;;;11.10;2.20;;;;;;;;;;5017890;28;20034;-71
2021/08/16 13:22:04;;;;;;;10.63;1.92;;;;;;;;;;5009913;28;20033;-71
2021/08/16 13:24:30;;;;;;;10.45;1.55;;;;;;;;;;5008956;28;20089;-71
2021/08/16 13:26:56;;;;;;;9.18;2.20;;;;;;;;;;5005228;28;20029;-70
2021/08/16 13:29:22;;;;;;;15.60;2.00;;;;;;;;;;5007284;28;20037;-70
2021/08/16 13:31:49;;;;;;;6.95;1.70;;;;;;;;;;5006117;28;20026;-71
2021/08/16 13:34:16;;;;;;;7.07;1.42;;;;;;;;;;5011277;28;20395;-71
2021/08/16 13:36:42;;;;;;;12.85;2.88;;;;;;;;;;5002905;28;20034;-70
2021/08/16 13:39:08;;;;;;;9.23;1.75;;;;;;;;;;5004821;28;20045;-69
2021/08/16 13:41:34;;;;;;;5.72;2.13;;;;;;;;;;5001095;28;20041;-69
2021/08/16 13:44:00;;;;;;;8.18;1.08;;;;;;;;;;4996408;28;20018;-70
2021/08/16 13:46:26;;;;;;;11.85;2.03;;;;;;;;;;5000789;28;20030;-70
2021/08/16 13:48:52;;;;;;;7.13;1.05;;;;;;;;;;5002909;28;20033;-70
2021/08/16 13:51:18;;;;;;;10.43;1.55;;;;;;;;;;5003407;28;20484;-70
2021/08/16 13:53:44;;;;;;;6.80;1.08;;;;;;;;;;5009182;28;20117;-72
2021/08/16 13:56:11;;;;;;;7.75;1.58;;;;;;;;;;5013319;28;20024;-71
2021/08/16 13:58:37;;;;;;;7.53;1.25;;;;;;;;;;5018790;28;20384;-72
2021/08/16 14:01:04;;;;;;;5.80;0.98;;;;;;;;;;5017694;28;20042;-73
2021/08/16 14:03:31;;;;;;;5.68;1.23;;;;;;;;;;5007568;28;20042;-70
2021/08/16 14:05:57;;;;;;;9.32;1.52;;;;;;;;;;5009262;28;20084;-70
2021/08/16 14:08:25;;;;;;;6.55;1.63;;;;;;;;;;5005046;28;20498;-71
2021/08/16 14:10:51;;;;;;;7.40;2.13;;;;;;;;;;5027629;28;20045;-70
2021/08/16 14:13:18;;;;;;;8.00;1.30;;;;;;;;;;5005129;28;20088;-70
2021/08/16 14:15:44;;;;;;;7.38;1.83;;;;;;;;;;5005731;28;20045;-70
2021/08/16 14:18:10;;;;;;;5.93;1.38;;;;;;;;;;5003591;28;20474;-70
2021/08/16 14:20:36;;;;;;;11.98;2.13;;;;;;;;;;5016709;28;20028;-70
2021/08/16 14:23:02;;;;;;;6.53;1.40;;;;;;;;;;5010911;28;20145;-71
2021/08/16 14:25:28;;;;;;;7.25;1.75;;;;;;;;;;5004386;28;20117;-71
2021/08/16 14:27:55;;;;;;;6.30;1.50;;;;;;;;;;5013369;28;20394;-71
2021/08/16 14:30:20;;;;;;;5.95;1.30;;;;;;;;;;5016288;28;20037;-70
2021/08/16 14:32:46;;;;;;;10.85;1.65;;;;;;;;;;5017803;28;20022;-70